Terminal Aerodrome Forecast
Issued by NWS Spokane, WA

Home | Current Version | Previous Version | Text Only | Print | Product List | Glossary On
Versions: 1 2 3 4 5 6 7 8 9 10 11 12 13 14 15 16 17 18 19 20 21 22 23 24 25 26
000
FTUS46 KOTX 281720
TAFEAT
TAF
KEAT 281720Z 2818/2918 VRB04KT P6SM OVC070
     FM282200 26008KT P6SM SCT080 OVC150
     FM290400 30006KT P6SM BKN080
     FM290700 30003KT P6SM -RA BKN050 OVC080
     FM290900 VRB05KT P6SM -RA OVC035=

USA.gov is the U.S. government's official web portal to all federal, state and local government web resources and services.